createdAt,value
2023-03-12T00:02:39.294Z,6.75
2023-03-12T00:07:40.847Z,6.64
2023-03-12T00:12:42.321Z,6.66
2023-03-12T00:17:43.804Z,6.65
2023-03-12T00:22:45.561Z,6.71
2023-03-12T00:27:47.123Z,6.64
2023-03-12T00:32:48.692Z,6.68
2023-03-12T00:37:50.213Z,6.68
2023-03-12T00:42:51.680Z,6.49
2023-03-12T00:47:53.423Z,6.36
2023-03-12T00:52:55.042Z,6.24
2023-03-12T00:57:56.520Z,6.25
2023-03-12T01:02:58.141Z,6.11
2023-03-12T01:07:59.712Z,6.33
2023-03-12T01:13:01.243Z,6.42
2023-03-12T01:18:02.778Z,6.49
2023-03-12T01:23:04.401Z,6.65
2023-03-12T01:28:06.175Z,6.74
2023-03-12T01:33:07.692Z,6.80
2023-03-12T01:38:13.418Z,6.79
2023-03-12T01:43:23.211Z,6.82
2023-03-12T01:48:25.483Z,6.84
2023-03-12T01:53:28.490Z,6.65
2023-03-12T01:58:34.228Z,6.44
2023-03-12T02:03:37.007Z,6.26
2023-03-12T02:08:43.931Z,6.23
2023-03-12T02:13:46.551Z,6.19
2023-03-12T02:18:50.660Z,6.47
2023-03-12T02:24:06.831Z,6.58
2023-03-12T02:29:10.979Z,6.64
2023-03-12T02:34:12.632Z,6.58
2023-03-12T02:39:14.353Z,6.66
2023-03-12T02:44:26.764Z,6.75
2023-03-12T02:49:31.417Z,6.70
2023-03-12T02:54:34.022Z,6.60
2023-03-12T02:59:35.748Z,6.52
2023-03-12T03:04:39.167Z,6.59
2023-03-12T03:09:40.905Z,6.45
2023-03-12T03:14:42.855Z,6.50
2023-03-12T03:19:44.494Z,6.66
2023-03-12T03:24:46.136Z,6.60
2023-03-12T03:29:47.672Z,6.58
2023-03-12T03:34:49.885Z,6.57
2023-03-12T03:39:52.308Z,6.42
2023-03-12T03:44:53.898Z,6.41
2023-03-12T03:49:55.583Z,6.29
2023-03-12T03:54:57.167Z,6.39
2023-03-12T04:00:03.088Z,6.41
2023-03-12T04:05:15.264Z,6.37
2023-03-12T04:10:19.187Z,6.51
2023-03-12T04:15:20.817Z,6.65
2023-03-12T04:20:23.684Z,6.59
2023-03-12T04:25:25.317Z,6.66
2023-03-12T04:30:27.131Z,6.71
2023-03-12T04:35:28.662Z,6.77
2023-03-12T04:40:30.524Z,6.92
2023-03-12T04:45:32.458Z,6.97
2023-03-12T04:50:34.635Z,7.10
2023-03-12T04:55:36.207Z,7.15
2023-03-12T05:00:39.847Z,7.17
2023-03-12T05:05:41.579Z,7.24
2023-03-12T05:10:44.035Z,7.23
2023-03-12T05:15:47.611Z,7.16
2023-03-12T05:21:03.913Z,7.25
2023-03-12T05:26:06.769Z,7.31
2023-03-12T05:31:11.178Z,7.26
2023-03-12T05:36:15.133Z,7.25
2023-03-12T05:41:22.274Z,7.26
2023-03-12T05:46:27.211Z,7.27
2023-03-12T05:51:29.178Z,7.39
2023-03-12T05:56:31.018Z,7.54
2023-03-12T06:01:32.718Z,7.50
2023-03-12T06:06:37.206Z,7.45
2023-03-12T06:11:39.358Z,7.47
2023-03-12T06:16:41.237Z,7.52
2023-03-12T06:21:43.625Z,7.40
2023-03-12T06:26:45.978Z,7.38
2023-03-12T06:31:47.604Z,7.37
2023-03-12T06:36:49.081Z,7.26
2023-03-12T06:41:50.616Z,7.28
2023-03-12T06:46:52.093Z,7.41
2023-03-12T06:51:53.728Z,7.51
2023-03-12T06:56:55.264Z,7.65
2023-03-12T07:01:56.790Z,7.79
2023-03-12T07:06:58.381Z,7.81
2023-03-12T07:11:59.918Z,7.90
2023-03-12T07:17:01.382Z,8.01
2023-03-12T07:22:02.859Z,8.19
2023-03-12T07:27:04.324Z,8.26
2023-03-12T07:32:05.985Z,8.35
2023-03-12T07:37:07.702Z,8.34
2023-03-12T07:42:11.012Z,8.45
2023-03-12T07:47:23.267Z,8.41
2023-03-12T07:52:25.647Z,8.66
2023-03-12T07:57:27.381Z,8.79
2023-03-12T08:02:29.008Z,8.94
2023-03-12T08:07:31.089Z,8.93
2023-03-12T08:12:32.985Z,9.06
2023-03-12T08:17:34.557Z,9.21
2023-03-12T08:22:37.450Z,9.49
2023-03-12T08:27:38.988Z,9.63
2023-03-12T08:32:40.530Z,9.64
2023-03-12T08:37:42.161Z,9.66
2023-03-12T08:42:44.984Z,9.70
2023-03-12T08:47:46.498Z,9.86
2023-03-12T08:52:48.437Z,9.94
2023-03-12T08:57:50.010Z,9.95
2023-03-12T09:02:51.600Z,9.98
2023-03-12T09:07:53.098Z,10.05
2023-03-12T09:12:54.625Z,10.08
2023-03-12T09:17:56.310Z,10.15
2023-03-12T09:22:57.998Z,10.26
2023-03-12T09:27:59.423Z,10.26
2023-03-12T09:33:00.933Z,10.30
2023-03-12T09:38:03.095Z,10.23
2023-03-12T09:43:39.373Z,10.23
2023-03-12T09:48:47.760Z,10.25
2023-03-12T09:53:58.153Z,10.10
2023-03-12T09:59:00.612Z,10.18
2023-03-12T10:04:24.733Z,10.18
2023-03-12T10:09:42.260Z,10.29
2023-03-12T10:14:55.584Z,10.32
2023-03-12T10:20:38.141Z,10.42
2023-03-12T10:25:44.307Z,10.62
2023-03-12T10:30:54.725Z,10.87
2023-03-12T10:35:56.804Z,10.82
2023-03-12T10:40:58.346Z,10.68
2023-03-12T10:46:34.707Z,10.78
2023-03-12T10:51:54.309Z,10.60
2023-03-12T10:56:55.913Z,10.63
2023-03-12T11:01:58.344Z,10.75
2023-03-12T11:07:14.850Z,10.69
2023-03-12T11:12:28.397Z,10.63
2023-03-12T11:17:29.951Z,10.58
2023-03-12T11:22:34.345Z,10.68
2023-03-12T11:27:37.809Z,10.81
2023-03-12T11:32:45.926Z,10.91
2023-03-12T11:38:10.253Z,10.76
2023-03-12T11:43:43.569Z,10.85
2023-03-12T11:48:53.922Z,10.93
2023-03-12T11:54:24.064Z,11.13
2023-03-12T11:59:45.334Z,11.62
2023-03-12T12:05:01.860Z,11.92
2023-03-12T12:10:22.826Z,12.33
2023-03-12T12:15:26.970Z,12.69
2023-03-12T12:20:50.554Z,12.91
2023-03-12T12:26:11.157Z,12.95
2023-03-12T12:31:37.511Z,12.66
2023-03-12T12:36:39.103Z,12.20
2023-03-12T12:41:52.951Z,11.80
2023-03-12T12:47:00.724Z,11.49
2023-03-12T12:52:07.361Z,11.37
2023-03-12T12:57:18.352Z,11.60
2023-03-12T13:02:22.881Z,12.18
2023-03-12T13:07:27.125Z,12.27
2023-03-12T13:12:34.755Z,12.79
2023-03-12T13:17:56.142Z,13.02
2023-03-12T13:23:18.983Z,13.21
2023-03-12T13:28:26.224Z,13.35
2023-03-12T13:33:45.581Z,13.45
2023-03-12T13:39:07.077Z,13.55
2023-03-12T13:44:23.759Z,13.77
2023-03-12T13:49:26.941Z,13.98
2023-03-12T13:54:33.174Z,14.02
2023-03-12T13:59:34.782Z,13.95
2023-03-12T14:04:40.375Z,13.66
2023-03-12T14:10:03.394Z,13.38
2023-03-12T14:15:23.186Z,13.51
2023-03-12T14:20:24.877Z,13.31
2023-03-12T14:25:31.552Z,13.22
2023-03-12T14:30:44.944Z,13.14
2023-03-12T14:36:12.169Z,13.07
2023-03-12T14:41:24.259Z,14.31
2023-03-12T14:46:25.778Z,14.99
2023-03-12T14:51:30.067Z,16.74
2023-03-12T14:56:33.332Z,16.31
2023-03-12T15:01:35.306Z,18.04
2023-03-12T15:06:58.909Z,19.05
2023-03-12T15:12:17.398Z,19.51
2023-03-12T15:17:20.961Z,17.88
2023-03-12T15:22:25.034Z,15.94
2023-03-12T15:27:26.432Z,15.15
2023-03-12T15:32:28.822Z,16.36
2023-03-12T15:37:36.455Z,15.60
2023-03-12T15:42:42.672Z,14.73
2023-03-12T15:47:45.360Z,14.47
2023-03-12T15:53:26.447Z,14.00
2023-03-12T15:58:30.929Z,14.62
2023-03-12T16:03:32.422Z,14.69
2023-03-12T16:08:44.129Z,14.01
2023-03-12T16:13:48.353Z,13.53
2023-03-12T16:18:49.817Z,13.40
2023-03-12T16:23:51.658Z,13.31
2023-03-12T16:28:53.180Z,13.25
2023-03-12T16:33:54.686Z,13.26
2023-03-12T16:38:56.815Z,13.24
2023-03-12T16:43:58.975Z,13.21
2023-03-12T16:49:00.979Z,12.98
2023-03-12T16:54:10.741Z,13.00
2023-03-12T16:59:28.248Z,12.91
2023-03-12T17:04:29.810Z,12.89
2023-03-12T17:09:31.332Z,12.89
2023-03-12T17:14:33.025Z,12.75
2023-03-12T17:19:34.481Z,12.69
2023-03-12T17:24:35.991Z,12.65
2023-03-12T17:29:37.493Z,12.51
2023-03-12T17:34:38.997Z,12.43
2023-03-12T17:39:40.683Z,12.37
2023-03-12T17:44:42.206Z,12.27
2023-03-12T17:49:43.844Z,12.19
2023-03-12T17:54:45.305Z,12.02
2023-03-12T17:59:46.756Z,11.83
2023-03-12T18:04:48.412Z,11.63
2023-03-12T18:09:49.918Z,11.62
2023-03-12T18:14:51.423Z,11.60
2023-03-12T18:19:52.954Z,11.64
2023-03-12T18:24:54.581Z,11.60
2023-03-12T18:29:56.084Z,11.50
2023-03-12T18:34:57.593Z,11.41
2023-03-12T18:39:59.177Z,11.45
2023-03-12T18:45:01.054Z,11.39
2023-03-12T18:50:02.696Z,11.37
2023-03-12T18:55:04.986Z,11.37
2023-03-12T19:00:07.015Z,11.33
2023-03-12T19:05:09.054Z,11.33
2023-03-12T19:10:12.094Z,11.21
2023-03-12T19:15:13.634Z,11.04
2023-03-12T19:20:15.497Z,11.01
2023-03-12T19:25:17.157Z,10.96
2023-03-12T19:30:18.687Z,10.88
2023-03-12T19:35:20.239Z,10.81
2023-03-12T19:40:21.844Z,10.76
2023-03-12T19:45:23.433Z,10.49
2023-03-12T19:50:24.951Z,10.61
2023-03-12T19:55:26.446Z,10.66
2023-03-12T20:00:30.266Z,10.54
2023-03-12T20:05:31.855Z,10.60
2023-03-12T20:10:33.364Z,10.54
2023-03-12T20:15:34.849Z,10.62
2023-03-12T20:20:36.344Z,10.60
2023-03-12T20:25:41.420Z,10.45
2023-03-12T20:30:43.288Z,10.31
2023-03-12T20:35:44.819Z,10.31
2023-03-12T20:40:46.426Z,10.20
2023-03-12T20:45:48.048Z,10.22
2023-03-12T20:50:50.238Z,10.22
2023-03-12T20:55:51.764Z,10.24
2023-03-12T21:00:53.293Z,10.29
2023-03-12T21:06:01.370Z,10.30
2023-03-12T21:11:06.816Z,10.31
2023-03-12T21:16:08.780Z,10.26
2023-03-12T21:21:10.344Z,10.13
2023-03-12T21:26:11.900Z,10.21
2023-03-12T21:31:17.314Z,10.21
2023-03-12T21:36:18.879Z,10.21
2023-03-12T21:41:20.989Z,10.13
2023-03-12T21:46:22.528Z,10.21
2023-03-12T21:51:24.120Z,10.28
2023-03-12T21:56:25.622Z,10.29
2023-03-12T22:01:27.565Z,10.22
2023-03-12T22:06:29.404Z,10.23
2023-03-12T22:11:30.868Z,10.24
2023-03-12T22:16:32.721Z,10.17
2023-03-12T22:21:34.336Z,10.19
2023-03-12T22:26:35.792Z,10.22
2023-03-12T22:31:37.379Z,10.27
2023-03-12T22:36:39.756Z,10.22
2023-03-12T22:41:41.208Z,10.23
2023-03-12T22:46:42.766Z,10.24
2023-03-12T22:51:44.293Z,10.25
2023-03-12T22:56:45.822Z,10.24
2023-03-12T23:01:47.384Z,10.19
2023-03-12T23:06:49.032Z,10.16
2023-03-12T23:11:50.512Z,10.23
2023-03-12T23:16:52.034Z,10.15
2023-03-12T23:21:53.552Z,10.21
2023-03-12T23:26:55.094Z,10.24
2023-03-12T23:31:56.684Z,10.22
2023-03-12T23:36:58.176Z,10.17
2023-03-12T23:41:59.710Z,10.22
2023-03-12T23:47:01.155Z,10.18
2023-03-12T23:52:02.609Z,10.07
2023-03-12T23:57:04.174Z,10.06
